Terminal Aerodrome Forecast
Issued by NWS Jackson, KY

Home | Current Version | Previous Version | Text Only | Print | Product List | Glossary On
Versions: 1 2 3 4 5 6 7 8 9 10 11 12 13 14 15 16 17 18 19
000
FTUS43 KJKL 171700
TAFLOZ
TAF
KLOZ 171725Z 1718/1818 23005KT 2SM TSRA BKN016 OVC050CB
     FM172000 VRB04KT P6SM SCT050 BKN070
     FM180300 VRB04KT 3SM SHRA VCTS OVC035CB
     FM180800 VRB03KT 2SM SHRA VCTS BKN009 OVC015CB
     FM181300 VRB03KT 5SM BR OVC015=

USA.gov is the U.S. government's official web portal to all federal, state and local government web resources and services.